الصفحة الرئيسية
METAR-TAF:

METAR-TAF

مطار :

مطار هاربين الدولي

هاربين, جمهورية الصين الشعبية

دائرة عرض: 45-45N, خط طول: 126-46E, ارتفاع: 143 متر

مراقبة الطقس الحالي

تاريخ ووقت الإصدار 1ساعة و 2 دقيقة قبل الساعة 00:00UTC
ريح 8 عقدة من الشمال/الشمال الشرقي, الاتجاه يتراوح بين الشمال و الشرق/الشمال الشرقي
درجة الحرارة 22°درجة مئوية
الرطوبة 50%
ضغط 1007 hPa
الرؤية 10 كم أو أكثر
الغيوم لا تقل 1500 م ولا وجود لمزنة ركامية السحاب الأسود

METAR: ZYHB 240000Z 03004MPS 360V070 CAVOK 22/11 Q1007 NOSIG

زمن: 09:02 (01:02 UTC)

توقعات

تاريخ ووقت الإصدار 5ساعات و 56 دقيقة قبل الساعة 19:06UTC
التوقعات صالحة من24 الساعة 00 UTC إلى 24 الساعة 24 UTC
ريح 8 عقدة من الشمال/الشمال الشرقي
الرؤية: 6000 متر
غيوم متفرقة على ارتفاع 3000 قدم
أصبح
من 24 الساعة 11 UTC إلى 24 الساعة 12 UTC
ريح 10 عقدة من الشرق

TAF: ZYHB 231906Z 2400/2424 03004MPS 6000 SCT030 TX28/2406Z TN14/2421Z BECMG 2411/2412 10005MPS

أرصاد الطقس والتوقعات من أكثر من 4000 مطار (تقارير الطقس للمطار METAR والتنبؤ بالطقس بالمطارTAF).

المحطات المتاحة هي النقط الصفراء والحمراء على الخريطة.

حرك المؤشر فوق النقطة لمعرفة اسم المحطة.

ثم انقر لمعرفة أرصاد وتوقعات الطقس.

لتغيير الخارطة: اضغط على الأزرار الخضراء مع رمز الصليب الأسود للتكبير. على الزر الأخضر مع شرطة للتصغير، أو على الأسهم الخضراء للخرائط المجاورة.


METAR-TAF: